Wetterdaten: Samstag, 08.12.2007
Datum Zeit Temp. A. Feuchte A. Luftdruck Regen Wind Richtung Richtung Sonnenschein UV Solar Windben
08.12.2007 00:00 6,8 C 78 % 1000,6 hPa 0,0 mm 12,9 km/h (3 Bft) W-SW 247 0 min 0 UV-I 0 W/m 30,6 km/h (5 Bft)
08.12.2007 00:10 6,8 C 78 % 1000,7 hPa 0,0 mm 12,9 km/h (3 Bft) W-SW 247 0 min 0 UV-I 0 W/m 25,7 km/h (4 Bft)
08.12.2007 00:20 6,8 C 78 % 1000,9 hPa 0,0 mm 11,3 km/h (2 Bft) W-SW 247 0 min 0 UV-I 0 W/m 24,1 km/h (4 Bft)
08.12.2007 00:30 6,8 C 78 % 1001,0 hPa 0,0 mm 12,9 km/h (3 Bft) W-SW 247 0 min 0 UV-I 0 W/m 33,8 km/h (5 Bft)
08.12.2007 00:40 6,8 C 78 % 1001,2 hPa 0,0 mm 12,9 km/h (3 Bft) W-SW 247 0 min 0 UV-I 0 W/m 29,0 km/h (5 Bft)
08.12.2007 00:50 6,8 C 78 % 1001,3 hPa 0,0 mm 12,9 km/h (3 Bft) W-SW 247 0 min 0 UV-I 0 W/m 29,0 km/h (5 Bft)
08.12.2007 01:00 6,7 C 79 % 1001,5 hPa 0,0 mm 12,9 km/h (3 Bft) W-SW 247 0 min 0 UV-I 0 W/m 29,0 km/h (5 Bft)
08.12.2007 01:10 6,8 C 78 % 1001,6 hPa 0,0 mm 12,9 km/h (3 Bft) W-SW 247 0 min 0 UV-I 0 W/m 29,0 km/h (5 Bft)
08.12.2007 01:20 6,8 C 78 % 1001,6 hPa 0,0 mm 12,9 km/h (3 Bft) W-SW 247 0 min 0 UV-I 0 W/m 27,4 km/h (4 Bft)
08.12.2007 01:30 6,8 C 78 % 1001,8 hPa 0,0 mm 11,3 km/h (2 Bft) W-SW 247 0 min 0 UV-I 0 W/m 33,8 km/h (5 Bft)
08.12.2007 01:40 6,8 C 79 % 1001,9 hPa 0,0 mm 12,9 km/h (3 Bft) W-SW 247 0 min 0 UV-I 0 W/m 29,0 km/h (5 Bft)
08.12.2007 01:50 6,7 C 79 % 1002,1 hPa 0,0 mm 11,3 km/h (2 Bft) W-SW 247 0 min 0 UV-I 0 W/m 25,7 km/h (4 Bft)
08.12.2007 02:00 6,7 C 80 % 1002,1 hPa 0,0 mm 11,3 km/h (2 Bft) W-SW 247 0 min 0 UV-I 0 W/m 25,7 km/h (4 Bft)
08.12.2007 02:10 6,6 C 80 % 1002,2 hPa 0,0 mm 12,9 km/h (3 Bft) W-SW 247 0 min 0 UV-I 0 W/m 33,8 km/h (5 Bft)
08.12.2007 02:20 6,6 C 80 % 1002,2 hPa 0,0 mm 11,3 km/h (2 Bft) SW 225 0 min 0 UV-I 0 W/m 25,7 km/h (4 Bft)
08.12.2007 02:30 6,5 C 81 % 1002,3 hPa 0,0 mm 12,9 km/h (3 Bft) W-SW 247 0 min 0 UV-I 0 W/m 25,7 km/h (4 Bft)
08.12.2007 02:40 6,5 C 81 % 1002,3 hPa 0,0 mm 14,5 km/h (3 Bft) W-SW 247 0 min 0 UV-I 0 W/m 29,0 km/h (5 Bft)
08.12.2007 02:50 6,5 C 80 % 1002,3 hPa 0,3 mm 12,9 km/h (3 Bft) W-SW 247 0 min 0 UV-I 0 W/m 25,7 km/h (4 Bft)
08.12.2007 03:00 6,6 C 80 % 1002,4 hPa 0,0 mm 14,5 km/h (3 Bft) W-SW 247 0 min 0 UV-I 0 W/m 29,0 km/h (5 Bft)
08.12.2007 03:10 6,7 C 81 % 1002,6 hPa 0,0 mm 11,3 km/h (2 Bft) W-SW 247 0 min 0 UV-I 0 W/m 24,1 km/h (4 Bft)
08.12.2007 03:20 6,6 C 81 % 1002,9 hPa 0,0 mm 9,7 km/h (2 Bft) SW 225 0 min 0 UV-I 0 W/m 29,0 km/h (5 Bft)
08.12.2007 03:30 6,6 C 82 % 1003,2 hPa 0,0 mm 6,4 km/h (2 Bft) W 270 0 min 0 UV-I 0 W/m 16,1 km/h (3 Bft)
08.12.2007 03:40 6,5 C 83 % 1003,2 hPa 0,0 mm 8,0 km/h (2 Bft) W 270 0 min 0 UV-I 0 W/m 19,3 km/h (3 Bft)
08.12.2007 03:50 6,3 C 84 % 1003,4 hPa 0,0 mm 6,4 km/h (2 Bft) W-SW 247 0 min 0 UV-I 0 W/m 16,1 km/h (3 Bft)
08.12.2007 04:00 6,3 C 84 % 1003,4 hPa 0,0 mm 8,0 km/h (2 Bft) W-SW 247 0 min 0 UV-I 0 W/m 17,7 km/h (3 Bft)
08.12.2007 04:10 6,3 C 83 % 1003,5 hPa 0,0 mm 9,7 km/h (2 Bft) W-SW 247 0 min 0 UV-I 0 W/m 22,5 km/h (4 Bft)
08.12.2007 04:20 6,4 C 82 % 1003,5 hPa 0,0 mm 9,7 km/h (2 Bft) W-SW 247 0 min 0 UV-I 0 W/m 22,5 km/h (4 Bft)
08.12.2007 04:30 6,4 C 83 % 1003,5 hPa 0,3 mm 11,3 km/h (2 Bft) W-SW 247 0 min 0 UV-I 0 W/m 27,4 km/h (4 Bft)
08.12.2007 04:40 6,4 C 84 % 1003,8 hPa 0,0 mm 8,0 km/h (2 Bft) SW 225 0 min 0 UV-I 0 W/m 22,5 km/h (4 Bft)
08.12.2007 04:50 6,3 C 85 % 1004,0 hPa 0,0 mm 6,4 km/h (2 Bft) W 270 0 min 0 UV-I 0 W/m 22,5 km/h (4 Bft)
08.12.2007 05:00 6,1 C 86 % 1004,3 hPa 1,0 mm 4,8 km/h (1 Bft) W-NW 292 0 min 0 UV-I 0 W/m 11,3 km/h (2 Bft)
08.12.2007 05:10 5,8 C 87 % 1004,3 hPa 0,3 mm 4,8 km/h (1 Bft) W-NW 292 0 min 0 UV-I 0 W/m 17,7 km/h (3 Bft)
08.12.2007 05:20 5,6 C 88 % 1004,5 hPa 0,3 mm 4,8 km/h (1 Bft) W 270 0 min 0 UV-I 0 W/m 14,5 km/h (3 Bft)
08.12.2007 05:30 5,5 C 89 % 1004,5 hPa 0,8 mm 6,4 km/h (2 Bft) W 270 0 min 0 UV-I 0 W/m 24,1 km/h (4 Bft)
08.12.2007 05:40 5,4 C 90 % 1004,8 hPa 0,0 mm 6,4 km/h (2 Bft) W 270 0 min 0 UV-I 0 W/m 19,3 km/h (3 Bft)
08.12.2007 05:50 5,3 C 90 % 1004,8 hPa 0,0 mm 6,4 km/h (2 Bft) W 270 0 min 0 UV-I 0 W/m 16,1 km/h (3 Bft)
08.12.2007 06:00 5,3 C 90 % 1004,7 hPa 0,0 mm 8,0 km/h (2 Bft) W-SW 247 0 min 0 UV-I 0 W/m 17,7 km/h (3 Bft)
08.12.2007 06:10 5,2 C 90 % 1004,8 hPa 0,3 mm 6,4 km/h (2 Bft) W 270 0 min 0 UV-I 0 W/m 14,5 km/h (3 Bft)
08.12.2007 06:20 5,2 C 90 % 1005,1 hPa 0,0 mm 4,8 km/h (1 Bft) W 270 0 min 0 UV-I 0 W/m 11,3 km/h (2 Bft)
08.12.2007 06:30 5,2 C 90 % 1005,2 hPa 0,0 mm 3,2 km/h (1 Bft) W 270 0 min 0 UV-I 0 W/m 9,7 km/h (2 Bft)
08.12.2007 06:40 5,3 C 90 % 1005,4 hPa 0,0 mm 4,8 km/h (1 Bft) W 270 0 min 0 UV-I 0 W/m 11,3 km/h (2 Bft)
08.12.2007 06:50 5,2 C 90 % 1005,4 hPa 0,0 mm 6,4 km/h (2 Bft) W 270 0 min 0 UV-I 0 W/m 16,1 km/h (3 Bft)
08.12.2007 07:00 5,2 C 90 % 1005,5 hPa 0,0 mm 4,8 km/h (1 Bft) W 270 0 min 0 UV-I 0 W/m 9,7 km/h (2 Bft)
08.12.2007 07:10 5,2 C 90 % 1005,5 hPa 0,3 mm 3,2 km/h (1 Bft) W 270 0 min 0 UV-I 0 W/m 8,0 km/h (2 Bft)
08.12.2007 07:20 5,2 C 91 % 1005,6 hPa 0,0 mm 3,2 km/h (1 Bft) W 270 0 min 0 UV-I 0 W/m 6,4 km/h (2 Bft)
08.12.2007 07:30 5,2 C 91 % 1005,7 hPa 0,0 mm 4,8 km/h (1 Bft) SW 225 0 min 0 UV-I 0 W/m 9,7 km/h (2 Bft)
08.12.2007 07:40 5,2 C 91 % 1005,8 hPa 0,0 mm 4,8 km/h (1 Bft) W 270 0 min 0 UV-I 0 W/m 11,3 km/h (2 Bft)
08.12.2007 07:50 5,3 C 91 % 1005,8 hPa 0,0 mm 6,4 km/h (2 Bft) W-SW 247 0 min 0 UV-I 0 W/m 11,3 km/h (2 Bft)
08.12.2007 08:00 5,3 C 91 % 1005,9 hPa 0,0 mm 6,4 km/h (2 Bft) W-SW 247 0 min 0 UV-I 0 W/m 17,7 km/h (3 Bft)
08.12.2007 08:10 5,4 C 90 % 1005,9 hPa 0,0 mm 8,0 km/h (2 Bft) W-SW 247 0 min 0 UV-I 0 W/m 16,1 km/h (3 Bft)
08.12.2007 08:20 5,6 C 89 % 1006,0 hPa 0,0 mm 8,0 km/h (2 Bft) W-SW 247 0 min 0 UV-I 0 W/m 19,3 km/h (3 Bft)
08.12.2007 08:30 5,7 C 88 % 1006,1 hPa 0,0 mm 8,0 km/h (2 Bft) W-SW 247 0 min 0 UV-I 0 W/m 22,5 km/h (4 Bft)
08.12.2007 08:40 5,7 C 87 % 1006,3 hPa 0,0 mm 11,3 km/h (2 Bft) W-SW 247 0 min 0 UV-I 5 W/m 22,5 km/h (4 Bft)
08.12.2007 08:50 5,8 C 87 % 1006,4 hPa 0,0 mm 8,0 km/h (2 Bft) SW 225 0 min 0 UV-I 7 W/m 19,3 km/h (3 Bft)
08.12.2007 09:00 5,8 C 86 % 1006,5 hPa 0,0 mm 9,7 km/h (2 Bft) W-SW 247 0 min 0 UV-I 11 W/m 24,1 km/h (4 Bft)
08.12.2007 09:10 5,9 C 86 % 1006,7 hPa 0,0 mm 9,7 km/h (2 Bft) W-SW 247 0 min 0 UV-I 21 W/m 29,0 km/h (5 Bft)
08.12.2007 09:20 5,9 C 85 % 1006,8 hPa 0,0 mm 9,7 km/h (2 Bft) W-SW 247 0 min 0 UV-I 21 W/m 24,1 km/h (4 Bft)
08.12.2007 09:30 5,9 C 85 % 1006,9 hPa 0,0 mm 8,0 km/h (2 Bft) W-SW 247 0 min 0 UV-I 18 W/m 20,9 km/h (4 Bft)
08.12.2007 09:40 5,9 C 85 % 1007,0 hPa 0,0 mm 8,0 km/h (2 Bft) SW 225 0 min 0 UV-I 28 W/m 17,7 km/h (3 Bft)
08.12.2007 09:50 5,9 C 85 % 1007,2 hPa 0,0 mm 9,7 km/h (2 Bft) W-SW 247 0 min 0 UV-I 39 W/m 25,7 km/h (4 Bft)
08.12.2007 10:00 6,0 C 84 % 1007,1 hPa 0,0 mm 9,7 km/h (2 Bft) W-SW 247 0 min 0 UV-I 39 W/m 24,1 km/h (4 Bft)
08.12.2007 10:10 6,1 C 84 % 1007,1 hPa 0,0 mm 9,7 km/h (2 Bft) W-SW 247 0 min 0 UV-I 56 W/m 25,7 km/h (4 Bft)
08.12.2007 10:20 6,1 C 83 % 1007,1 hPa 0,0 mm 9,7 km/h (2 Bft) W-SW 247 0 min 0 UV-I 56 W/m 25,7 km/h (4 Bft)
08.12.2007 10:30 6,2 C 84 % 1007,2 hPa 0,0 mm 8,0 km/h (2 Bft) W-SW 247 0 min 0 UV-I 40 W/m 19,3 km/h (3 Bft)
08.12.2007 10:40 6,1 C 84 % 1007,2 hPa 0,0 mm 9,7 km/h (2 Bft) W-SW 247 0 min 0 UV-I 44 W/m 19,3 km/h (3 Bft)
08.12.2007 10:50 6,2 C 83 % 1007,3 hPa 0,0 mm 9,7 km/h (2 Bft) SW 225 0 min 0 UV-I 47 W/m 24,1 km/h (4 Bft)
08.12.2007 11:00 6,2 C 82 % 1007,3 hPa 0,0 mm 8,0 km/h (2 Bft) SW 225 0 min 0 UV-I 53 W/m 22,5 km/h (4 Bft)
08.12.2007 11:10 6,3 C 82 % 1007,2 hPa 0,0 mm 11,3 km/h (2 Bft) W-SW 247 0 min 0 UV-I 91 W/m 20,9 km/h (4 Bft)
08.12.2007 11:20 6,4 C 81 % 1007,1 hPa 0,0 mm 9,7 km/h (2 Bft) W-SW 247 0 min 0 UV-I 125 W/m 25,7 km/h (4 Bft)
08.12.2007 11:30 6,6 C 81 % 1007,1 hPa 0,0 mm 8,0 km/h (2 Bft) W-SW 247 0 min 0 UV-I 125 W/m 20,9 km/h (4 Bft)
08.12.2007 11:40 6,8 C 79 % 1006,9 hPa 0,0 mm 8,0 km/h (2 Bft) W-SW 247 0 min 0 UV-I 139 W/m 19,3 km/h (3 Bft)
08.12.2007 11:50 6,9 C 77 % 1007,0 hPa 0,0 mm 11,3 km/h (2 Bft) W-SW 247 0 min 0 UV-I 130 W/m 27,4 km/h (4 Bft)
08.12.2007 12:00 6,9 C 76 % 1006,8 hPa 0,0 mm 12,9 km/h (3 Bft) W-SW 247 0 min 0 UV-I 130 W/m 25,7 km/h (4 Bft)
08.12.2007 12:10 6,9 C 76 % 1006,7 hPa 0,0 mm 9,7 km/h (2 Bft) W-SW 247 0 min 0 UV-I 123 W/m 24,1 km/h (4 Bft)
08.12.2007 12:20 6,9 C 76 % 1006,7 hPa 0,0 mm 12,9 km/h (3 Bft) SW 225 0 min 0 UV-I 109 W/m 29,0 km/h (5 Bft)
08.12.2007 12:30 6,9 C 75 % 1006,5 hPa 0,0 mm 12,9 km/h (3 Bft) W-SW 247 0 min 0 UV-I 95 W/m 27,4 km/h (4 Bft)
08.12.2007 12:40 6,9 C 75 % 1006,4 hPa 0,0 mm 9,7 km/h (2 Bft) W-SW 247 0 min 0 UV-I 86 W/m 24,1 km/h (4 Bft)
08.12.2007 12:50 6,8 C 76 % 1006,4 hPa 0,0 mm 9,7 km/h (2 Bft) W-SW 247 0 min 0 UV-I 105 W/m 22,5 km/h (4 Bft)
08.12.2007 13:00 6,8 C 75 % 1006,3 hPa 0,0 mm 9,7 km/h (2 Bft) W-SW 247 0 min 0 UV-I 113 W/m 25,7 km/h (4 Bft)
08.12.2007 13:10 6,8 C 74 % 1006,2 hPa 0,0 mm 8,0 km/h (2 Bft) W-SW 247 10 min 0 UV-I 253 W/m 20,9 km/h (4 Bft)
08.12.2007 13:20 6,9 C 73 % 1006,1 hPa 0,0 mm 8,0 km/h (2 Bft) W-SW 247 10 min 0 UV-I 195 W/m 24,1 km/h (4 Bft)
08.12.2007 13:30 6,9 C 72 % 1006,1 hPa 0,0 mm 9,7 km/h (2 Bft) SW 225 0 min 0 UV-I 128 W/m 20,9 km/h (4 Bft)
08.12.2007 13:40 7,0 C 73 % 1006,0 hPa 0,0 mm 8,0 km/h (2 Bft) W-SW 247 0 min 0 UV-I 127 W/m 22,5 km/h (4 Bft)
08.12.2007 13:50 7,0 C 73 % 1005,9 hPa 0,0 mm 8,0 km/h (2 Bft) SW 225 0 min 0 UV-I 97 W/m 24,1 km/h (4 Bft)
08.12.2007 14:00 6,9 C 74 % 1005,7 hPa 0,0 mm 6,4 km/h (2 Bft) SW 225 0 min 0 UV-I 44 W/m 17,7 km/h (3 Bft)
08.12.2007 14:10 6,8 C 73 % 1005,6 hPa 0,0 mm 4,8 km/h (1 Bft) W-SW 247 0 min 0 UV-I 51 W/m 14,5 km/h (3 Bft)
08.12.2007 14:20 6,8 C 73 % 1005,4 hPa 0,0 mm 6,4 km/h (2 Bft) S-SW 202 0 min 0 UV-I 56 W/m 19,3 km/h (3 Bft)
08.12.2007 14:30 6,7 C 72 % 1005,2 hPa 0,0 mm 4,8 km/h (1 Bft) SW 225 0 min 0 UV-I 49 W/m 14,5 km/h (3 Bft)
08.12.2007 14:40 6,7 C 73 % 1005,2 hPa 0,0 mm 6,4 km/h (2 Bft) SW 225 0 min 0 UV-I 46 W/m 17,7 km/h (3 Bft)
08.12.2007 14:50 6,7 C 73 % 1005,0 hPa 0,0 mm 6,4 km/h (2 Bft) SW 225 0 min 0 UV-I 60 W/m 16,1 km/h (3 Bft)
08.12.2007 15:00 6,7 C 72 % 1005,0 hPa 0,0 mm 4,8 km/h (1 Bft) SW 225 0 min 0 UV-I 58 W/m 19,3 km/h (3 Bft)
08.12.2007 15:10 6,6 C 72 % 1004,9 hPa 0,0 mm 6,4 km/h (2 Bft) SW 225 0 min 0 UV-I 47 W/m 14,5 km/h (3 Bft)
08.12.2007 15:20 6,4 C 73 % 1004,7 hPa 0,0 mm 4,8 km/h (1 Bft) SW 225 0 min 0 UV-I 42 W/m 14,5 km/h (3 Bft)
08.12.2007 15:30 6,4 C 73 % 1004,6 hPa 0,0 mm 3,2 km/h (1 Bft) SW 225 0 min 0 UV-I 35 W/m 8,0 km/h (2 Bft)
08.12.2007 15:40 6,3 C 74 % 1004,4 hPa 0,0 mm 3,2 km/h (1 Bft) S-SW 202 0 min 0 UV-I 25 W/m 8,0 km/h (2 Bft)
08.12.2007 15:50 6,2 C 73 % 1004,3 hPa 0,0 mm 4,8 km/h (1 Bft) S-SW 202 0 min 0 UV-I 14 W/m 17,7 km/h (3 Bft)
08.12.2007 16:00 6,1 C 72 % 1004,0 hPa 0,0 mm 4,8 km/h (1 Bft) SW 225 10 min 0 UV-I 11 W/m 11,3 km/h (2 Bft)
08.12.2007 16:10 5,9 C 73 % 1003,9 hPa 0,0 mm 4,8 km/h (1 Bft) S-SW 202 0 min 0 UV-I 5 W/m 14,5 km/h (3 Bft)
08.12.2007 16:20 5,8 C 73 % 1003,9 hPa 0,0 mm 1,6 km/h (1 Bft) S-SW 202 0 min 0 UV-I 0 W/m 1,6 km/h (1 Bft)
08.12.2007 16:30 5,7 C 73 % 1003,8 hPa 0,0 mm 3,2 km/h (1 Bft) S 180 0 min 0 UV-I 0 W/m 14,5 km/h (3 Bft)
08.12.2007 16:40 5,6 C 73 % 1003,5 hPa 0,0 mm 3,2 km/h (1 Bft) S-SW 202 0 min 0 UV-I 0 W/m 11,3 km/h (2 Bft)
08.12.2007 16:50 5,5 C 73 % 1003,4 hPa 0,0 mm 3,2 km/h (1 Bft) S-SW 202 0 min 0 UV-I 0 W/m 14,5 km/h (3 Bft)
08.12.2007 17:00 5,4 C 73 % 1003,1 hPa 0,0 mm 4,8 km/h (1 Bft) S-SW 202 0 min 0 UV-I 0 W/m 14,5 km/h (3 Bft)
08.12.2007 17:10 5,4 C 72 % 1002,9 hPa 0,0 mm 4,8 km/h (1 Bft) S 180 0 min 0 UV-I 0 W/m 11,3 km/h (2 Bft)
08.12.2007 17:20 5,3 C 72 % 1002,5 hPa 0,0 mm 4,8 km/h (1 Bft) S 180 0 min 0 UV-I 0 W/m 11,3 km/h (2 Bft)
08.12.2007 17:30 5,3 C 72 % 1002,3 hPa 0,0 mm 3,2 km/h (1 Bft) S-SO 157 0 min 0 UV-I 0 W/m 9,7 km/h (2 Bft)
08.12.2007 17:40 5,2 C 73 % 1002,0 hPa 0,0 mm 3,2 km/h (1 Bft) S-SW 202 0 min 0 UV-I 0 W/m 11,3 km/h (2 Bft)
08.12.2007 17:50 5,2 C 72 % 1001,8 hPa 0,0 mm 4,8 km/h (1 Bft) S 180 0 min 0 UV-I 0 W/m 12,9 km/h (3 Bft)
08.12.2007 18:00 5,2 C 72 % 1001,6 hPa 0,0 mm 4,8 km/h (1 Bft) S-SW 202 0 min 0 UV-I 0 W/m 9,7 km/h (2 Bft)
08.12.2007 18:10 5,2 C 71 % 1001,3 hPa 0,0 mm 6,4 km/h (2 Bft) S 180 0 min 0 UV-I 0 W/m 22,5 km/h (4 Bft)
08.12.2007 18:20 5,3 C 71 % 1001,1 hPa 0,0 mm 4,8 km/h (1 Bft) S 180 0 min 0 UV-I 0 W/m 17,7 km/h (3 Bft)
08.12.2007 18:30 5,3 C 71 % 1000,9 hPa 0,0 mm 4,8 km/h (1 Bft) S-SO 157 0 min 0 UV-I 0 W/m 17,7 km/h (3 Bft)
08.12.2007 18:40 5,3 C 71 % 1000,6 hPa 0,0 mm 4,8 km/h (1 Bft) S-SW 202 0 min 0 UV-I 0 W/m 14,5 km/h (3 Bft)
08.12.2007 18:50 5,4 C 71 % 1000,3 hPa 0,0 mm 6,4 km/h (2 Bft) S-SW 202 0 min 0 UV-I 0 W/m 16,1 km/h (3 Bft)
08.12.2007 19:00 5,4 C 71 % 1000,2 hPa 0,0 mm 4,8 km/h (1 Bft) S-SW 202 0 min 0 UV-I 0 W/m 14,5 km/h (3 Bft)
08.12.2007 19:10 5,4 C 70 % 1000,1 hPa 0,0 mm 4,8 km/h (1 Bft) S-SW 202 0 min 0 UV-I 0 W/m 19,3 km/h (3 Bft)
08.12.2007 19:20 5,4 C 70 % 999,9 hPa 0,0 mm 4,8 km/h (1 Bft) S 180 0 min 0 UV-I 0 W/m 14,5 km/h (3 Bft)
08.12.2007 19:30 5,4 C 70 % 999,4 hPa 0,0 mm 4,8 km/h (1 Bft) S 180 0 min 0 UV-I 0 W/m 14,5 km/h (3 Bft)
08.12.2007 19:40 5,4 C 70 % 999,0 hPa 0,0 mm 4,8 km/h (1 Bft) S 180 0 min 0 UV-I 0 W/m 16,1 km/h (3 Bft)
08.12.2007 19:50 5,4 C 70 % 998,6 hPa 0,0 mm 4,8 km/h (1 Bft) S-SO 157 0 min 0 UV-I 0 W/m 19,3 km/h (3 Bft)
08.12.2007 20:00 5,4 C 71 % 998,4 hPa 0,0 mm 4,8 km/h (1 Bft) SO 135 0 min 0 UV-I 0 W/m 16,1 km/h (3 Bft)
08.12.2007 20:10 5,4 C 71 % 998,1 hPa 0,0 mm 4,8 km/h (1 Bft) S-SO 157 0 min 0 UV-I 0 W/m 17,7 km/h (3 Bft)
08.12.2007 20:20 5,4 C 72 % 997,8 hPa 0,0 mm 6,4 km/h (2 Bft) O-SO 112 0 min 0 UV-I 0 W/m 17,7 km/h (3 Bft)
08.12.2007 20:30 5,3 C 72 % 997,5 hPa 0,0 mm 4,8 km/h (1 Bft) S-SO 157 0 min 0 UV-I 0 W/m 17,7 km/h (3 Bft)
08.12.2007 20:40 5,3 C 73 % 997,2 hPa 0,0 mm 4,8 km/h (1 Bft) SO 135 0 min 0 UV-I 0 W/m 17,7 km/h (3 Bft)
08.12.2007 20:50 5,3 C 73 % 996,8 hPa 0,0 mm 3,2 km/h (1 Bft) S 180 0 min 0 UV-I 0 W/m 8,0 km/h (2 Bft)
08.12.2007 21:00 5,3 C 76 % 996,4 hPa 0,3 mm 4,8 km/h (1 Bft) O-SO 112 0 min 0 UV-I 0 W/m 9,7 km/h (2 Bft)
08.12.2007 21:10 5,3 C 77 % 996,0 hPa 0,0 mm 3,2 km/h (1 Bft) O-SO 112 0 min 0 UV-I 0 W/m 9,7 km/h (2 Bft)
08.12.2007 21:20 5,2 C 78 % 995,6 hPa 0,0 mm 4,8 km/h (1 Bft) S-SO 157 0 min 0 UV-I 0 W/m 11,3 km/h (2 Bft)
08.12.2007 21:30 5,2 C 78 % 995,4 hPa 0,0 mm 4,8 km/h (1 Bft) S-SO 157 0 min 0 UV-I 0 W/m 11,3 km/h (2 Bft)
08.12.2007 21:40 5,2 C 77 % 995,2 hPa 0,0 mm 6,4 km/h (2 Bft) S-SO 157 0 min 0 UV-I 0 W/m 16,1 km/h (3 Bft)
08.12.2007 21:50 5,3 C 76 % 994,9 hPa 0,0 mm 6,4 km/h (2 Bft) O-SO 112 0 min 0 UV-I 0 W/m 20,9 km/h (4 Bft)
08.12.2007 22:00 5,4 C 77 % 994,5 hPa 0,0 mm 6,4 km/h (2 Bft) S-SO 157 0 min 0 UV-I 0 W/m 19,3 km/h (3 Bft)
08.12.2007 22:10 5,4 C 77 % 994,3 hPa 0,0 mm 6,4 km/h (2 Bft) S 180 0 min 0 UV-I 0 W/m 22,5 km/h (4 Bft)
08.12.2007 22:20 5,4 C 77 % 994,0 hPa 0,0 mm 8,0 km/h (2 Bft) S-SO 157 0 min 0 UV-I 0 W/m 24,1 km/h (4 Bft)
08.12.2007 22:30 5,4 C 77 % 993,6 hPa 0,0 mm 6,4 km/h (2 Bft) S-SO 157 0 min 0 UV-I 0 W/m 17,7 km/h (3 Bft)
08.12.2007 22:40 5,3 C 78 % 993,3 hPa 0,0 mm 4,8 km/h (1 Bft) S-SO 157 0 min 0 UV-I 0 W/m 19,3 km/h (3 Bft)
08.12.2007 22:50 5,3 C 79 % 993,2 hPa 0,0 mm 8,0 km/h (2 Bft) S 180 0 min 0 UV-I 0 W/m 17,7 km/h (3 Bft)
08.12.2007 23:00 5,2 C 79 % 993,1 hPa 0,0 mm 4,8 km/h (1 Bft) S 180 0 min 0 UV-I 0 W/m 20,9 km/h (4 Bft)
08.12.2007 23:10 5,1 C 80 % 992,7 hPa 0,3 mm 6,4 km/h (2 Bft) S 180 0 min 0 UV-I 0 W/m 25,7 km/h (4 Bft)
08.12.2007 23:20 5,0 C 82 % 992,4 hPa 0,0 mm 8,0 km/h (2 Bft) S 180 0 min 0 UV-I 0 W/m 20,9 km/h (4 Bft)
08.12.2007 23:30 4,8 C 83 % 992,2 hPa 0,0 mm 6,4 km/h (2 Bft) SO 135 0 min 0 UV-I 0 W/m 24,1 km/h (4 Bft)
08.12.2007 23:40 4,6 C 84 % 992,0 hPa 0,3 mm 6,4 km/h (2 Bft) SO 135 0 min 0 UV-I 0 W/m 22,5 km/h (4 Bft)
08.12.2007 23:50 4,4 C 84 % 991,8 hPa 0,0 mm 4,8 km/h (1 Bft) S-SO 157 0 min 0 UV-I 0 W/m 24,1 km/h (4 Bft)
_ Min-Zeit 23:50 19:10 23:50 - 16:20 - - - - - 16:20
Minimum _ 4,3 C 70 % 991,8 hPa - 1,6 km/h (1 Bft) - - - - - 1,6 km/h (1 Bft)
_ Max-Zeit 12:10 07:20 10:50 05:00 02:40 - - 13:10 00:00 13:10 00:30
Maximum _ 7,0 C 91 % 1007,3 hPa 1,0 mm 14,5 km/h
W-SW (3 Bft)
- - 10 min 0 UV-I 253 W/m 33,8 km/h
W (5 Bft)
Durchschnitt _ 5,9 C 79 % 1002,6 hPa #4,1 mm 7,4 km/h (2 Bft) W-SW - #30 min. 0 UV-I 70 W/m 19,4 km/h (3 Bft)